Time;durP1;ratioP1;P1;durP2;ratioP2;P2;SDS_P1;SDS_P2;PMS_P1;PMS_P2;Temp;Humidity;BMP_temperature;BMP_pressure;BME280_temperature;BME280_humidity;BME280_pressure;Samples;Min_cycle;Max_cycle;Signal;HPM_P1;HPM_P2
2021/10/05 00:00:55;;;;;;;;;1.50;1.50;;;;;16.83;65.29;100838.56;4955662;28;45983;-56
2021/10/05 00:03:20;;;;;;;;;1.00;1.00;;;;;16.81;65.23;100832.50;4954416;28;45393;-56
2021/10/05 00:05:46;;;;;;;;;1.00;1.00;;;;;16.80;65.32;100833.47;4953335;28;45353;-56
2021/10/05 00:08:11;;;;;;;;;0.50;0.25;;;;;16.77;65.35;100823.94;4953523;28;45646;-56
2021/10/05 00:10:37;;;;;;;;;1.00;1.00;;;;;16.77;65.64;100818.63;4955586;28;46015;-56
2021/10/05 00:13:03;;;;;;;;;1.00;1.00;;;;;16.75;65.51;100823.25;4951445;28;45378;-55
2021/10/05 00:15:28;;;;;;;;;4.75;2.00;;;;;16.71;65.46;100821.78;4952215;28;45253;-55
2021/10/05 00:17:54;;;;;;;;;2.75;1.00;;;;;16.65;65.65;100823.09;4959820;28;45572;-55
2021/10/05 00:20:19;;;;;;;;;1.00;1.00;;;;;16.61;65.57;100815.53;4968562;28;46758;-55
2021/10/05 00:22:46;;;;;;;;;1.00;1.00;;;;;16.56;65.86;100807.94;4959504;28;45310;-52
2021/10/05 00:25:12;;;;;;;;;2.25;1.00;;;;;16.53;66.12;100805.53;4943956;28;45230;-53
2021/10/05 00:27:37;;;;;;;;;0.00;0.00;;;;;16.50;66.08;100802.25;4943582;28;45228;-55
2021/10/05 00:30:06;;;;;;;;;1.75;1.00;;;;;16.45;66.17;100813.31;4943664;28;45681;-55
2021/10/05 00:32:32;;;;;;;;;3.25;1.00;;;;;16.38;66.48;100798.81;4943567;28;45338;-56
2021/10/05 00:34:57;;;;;;;;;3.50;1.00;;;;;16.37;66.43;100802.47;4947552;28;45382;-57
2021/10/05 00:37:23;;;;;;;;;1.00;1.00;;;;;16.38;66.64;100806.81;4962987;28;46246;-57
2021/10/05 00:39:49;;;;;;;;;2.50;1.00;;;;;16.35;66.56;100805.25;4954847;28;45474;-57
2021/10/05 00:42:14;;;;;;;;;2.75;1.00;;;;;16.37;66.64;100797.13;4954439;28;45437;-57
2021/10/05 00:44:40;;;;;;;;;0.75;0.75;;;;;16.36;66.58;100801.63;4961052;28;45325;-56
2021/10/05 00:47:10;;;;;;;;;1.00;1.00;;;;;16.35;66.53;100794.63;4962733;28;45445;-59
2021/10/05 00:49:37;;;;;;;;;1.00;1.00;;;;;16.35;66.64;100796.41;4944060;28;46382;-54
2021/10/05 00:52:04;;;;;;;;;2.00;0.50;;;;;16.34;66.79;100792.06;4943215;28;45424;-57
2021/10/05 00:54:32;;;;;;;;;1.75;1.75;;;;;16.31;66.79;100790.50;4943030;28;45331;-57
2021/10/05 00:56:58;;;;;;;;;1.00;1.00;;;;;16.30;66.83;100783.50;4943331;28;45464;-56
2021/10/05 00:59:23;;;;;;;;;1.00;1.00;;;;;16.30;66.81;100770.22;4942955;28;45319;-56
2021/10/05 01:01:49;;;;;;;;;5.00;4.00;;;;;16.27;66.98;100772.25;4943124;28;45505;-56
2021/10/05 01:04:15;;;;;;;;;1.00;1.00;;;;;16.25;66.96;100764.41;4942921;28;45316;-56
2021/10/05 01:06:56;;;;;;;;;1.75;1.00;;;;;16.22;67.02;100770.00;4943297;28;45310;-57
2021/10/05 01:09:22;;;;;;;;;3.50;1.00;;;;;16.19;67.13;100763.13;4956567;28;46279;-57
2021/10/05 01:11:47;;;;;;;;;0.25;0.25;;;;;16.20;67.13;100766.63;4947781;28;45313;-56
2021/10/05 01:14:13;;;;;;;;;0.75;0.75;;;;;16.19;67.24;100763.13;4943031;28;45455;-57
2021/10/05 01:16:38;;;;;;;;;1.00;1.00;;;;;16.17;67.32;100762.38;4943010;28;45308;-57
2021/10/05 01:19:04;;;;;;;;;1.00;1.00;;;;;16.16;67.44;100759.88;4942759;28;46127;-54
2021/10/05 01:21:29;;;;;;;;;1.25;1.00;;;;;16.15;67.39;100758.19;4942975;28;45346;-57
2021/10/05 01:24:07;;;;;;;;;1.25;0.50;;;;;16.12;67.47;100748.66;4943184;28;45380;-56
2021/10/05 01:26:33;;;;;;;;;1.75;1.00;;;;;16.09;67.54;100732.94;4942921;28;45330;-57
2021/10/05 01:29:04;;;;;;;;;0.00;0.00;;;;;16.06;67.64;100735.03;4942089;28;45287;-56
2021/10/05 01:31:32;;;;;;;;;0.00;0.00;;;;;16.04;67.73;100729.84;4942512;28;45342;-57
2021/10/05 01:33:59;;;;;;;;;1.00;1.00;;;;;16.04;67.61;100732.50;4957398;28;45471;-57
2021/10/05 01:36:26;;;;;;;;;2.00;0.00;;;;;16.03;67.66;100725.47;4958762;28;45287;-56
2021/10/05 01:38:51;;;;;;;;;1.00;1.00;;;;;16.02;67.91;100717.63;4962160;28;45343;-56
2021/10/05 01:41:17;;;;;;;;;1.25;1.00;;;;;15.99;67.89;100708.13;4960351;28;45380;-57
2021/10/05 01:43:42;;;;;;;;;2.00;1.00;;;;;15.97;67.74;100702.09;4942961;28;45271;-57
2021/10/05 01:46:13;;;;;;;;;1.00;1.00;;;;;15.94;68.05;100704.13;4952432;28;45239;-56
2021/10/05 01:48:39;;;;;;;;;0.25;0.00;;;;;15.95;68.03;100700.50;4944803;28;45472;-56
2021/10/05 01:51:05;;;;;;;;;0.75;0.50;;;;;15.93;67.96;100687.34;4942385;28;45234;-56
2021/10/05 01:53:30;;;;;;;;;0.00;0.00;;;;;15.91;68.23;100686.66;4942653;28;45245;-55
2021/10/05 01:55:56;;;;;;;;;1.00;1.00;;;;;15.90;68.18;100672.53;4942631;28;45360;-57
2021/10/05 01:58:21;;;;;;;;;2.25;0.75;;;;;15.87;68.24;100669.25;4942461;28;45301;-56
2021/10/05 02:00:47;;;;;;;;;3.50;1.50;;;;;15.83;68.36;100667.84;4942366;28;45375;-57
2021/10/05 02:03:14;;;;;;;;;3.00;1.00;;;;;15.81;68.34;100667.13;4942243;28;45579;-55
2021/10/05 02:05:41;;;;;;;;;2.25;2.00;;;;;15.79;68.44;100661.09;4942299;28;45269;-55
2021/10/05 02:08:07;;;;;;;;;3.00;1.00;;;;;15.78;68.41;100662.91;4945781;28;46072;-57
2021/10/05 02:10:34;;;;;;;;;0.00;0.00;;;;;15.75;68.67;100655.19;4960355;28;45336;-57
2021/10/05 02:12:59;;;;;;;;;2.00;1.00;;;;;15.75;68.74;100651.69;4942353;28;45361;-57
2021/10/05 02:15:25;;;;;;;;;4.00;1.00;;;;;15.76;68.73;100648.06;4942252;28;45337;-56
2021/10/05 02:17:51;;;;;;;;;1.00;1.00;;;;;15.73;68.77;100643.03;4942155;28;45354;-56
2021/10/05 02:20:16;;;;;;;;;2.00;0.00;;;;;15.69;68.74;100634.44;4942008;28;45335;-56
2021/10/05 02:22:41;;;;;;;;;1.00;1.00;;;;;15.69;69.09;100629.13;4942473;28;45390;-55
2021/10/05 02:25:08;;;;;;;;;3.00;1.00;;;;;15.70;68.97;100633.47;4942294;28;45231;-57
2021/10/05 02:27:34;;;;;;;;;2.75;0.25;;;;;15.68;68.84;100621.31;4942046;28;46013;-55
2021/10/05 02:30:00;;;;;;;;;3.50;1.50;;;;;15.67;69.11;100625.78;4941908;28;45517;-56
2021/10/05 02:32:26;;;;;;;;;4.00;1.00;;;;;15.65;68.96;100626.88;4942217;28;45282;-56
2021/10/05 02:34:52;;;;;;;;;1.75;1.00;;;;;15.64;69.31;100610.09;4944847;28;45322;-55
2021/10/05 02:37:18;;;;;;;;;1.00;1.00;;;;;15.65;68.94;100614.44;4961237;28;45391;-56
2021/10/05 02:39:45;;;;;;;;;0.25;0.25;;;;;15.63;69.28;100605.72;4962710;28;45308;-57
2021/10/05 02:42:10;;;;;;;;;1.00;1.00;;;;;15.60;69.22;100587.38;4956278;28;45393;-54
2021/10/05 02:44:38;;;;;;;;;1.00;1.00;;;;;15.61;69.29;100587.28;4945298;28;45270;-56
2021/10/05 02:47:04;;;;;;;;;3.00;0.75;;;;;15.62;69.37;100588.13;4945163;28;46258;-55
2021/10/05 02:49:30;;;;;;;;;1.00;1.00;;;;;15.59;69.31;100586.53;4944676;28;45529;-56
2021/10/05 02:51:55;;;;;;;;;1.25;1.00;;;;;15.60;69.55;100585.56;4945355;28;45332;-56
2021/10/05 02:54:21;;;;;;;;;1.50;0.00;;;;;15.61;69.32;100574.00;4945348;28;45397;-56
2021/10/05 02:56:46;;;;;;;;;1.00;0.00;;;;;15.61;69.54;100567.84;4947147;28;45378;-55
2021/10/05 02:59:14;;;;;;;;;1.25;0.50;;;;;15.62;69.57;100556.25;4955765;28;45351;-55
2021/10/05 03:01:39;;;;;;;;;2.25;1.00;;;;;15.62;69.46;100562.41;4957344;28;45469;-56
2021/10/05 03:04:05;;;;;;;;;1.50;1.00;;;;;15.62;69.52;100556.25;4953905;28;45218;-57
2021/10/05 03:06:30;;;;;;;;;6.00;1.00;;;;;15.62;69.67;100565.06;4955572;28;46222;-57
2021/10/05 03:08:56;;;;;;;;;3.00;0.00;;;;;15.60;69.52;100558.19;4955075;28;45245;-55
2021/10/05 03:11:22;;;;;;;;;2.25;0.50;;;;;15.59;69.75;100554.69;4964448;28;45329;-56
2021/10/05 03:13:48;;;;;;;;;0.00;0.00;;;;;15.58;69.95;100562.78;4964199;28;45895;-54
2021/10/05 03:16:13;;;;;;;;;3.00;0.00;;;;;15.61;69.88;100559.88;4963970;28;46222;-55
2021/10/05 03:18:41;;;;;;;;;1.00;1.00;;;;;15.63;69.87;100556.13;4963799;28;45245;-54
2021/10/05 03:21:09;;;;;;;;;2.75;0.00;;;;;15.64;69.88;100549.03;4964150;28;45346;-56
2021/10/05 03:23:34;;;;;;;;;5.00;2.00;;;;;15.68;69.98;100549.59;4963567;28;45354;-57
2021/10/05 03:25:59;;;;;;;;;12.25;10.00;;;;;15.70;69.94;100535.22;4963119;28;45410;-56
2021/10/05 03:28:25;;;;;;;;;5.25;2.50;;;;;15.72;70.14;100530.63;4963759;28;45227;-56
2021/10/05 03:30:51;;;;;;;;;8.75;5.75;;;;;15.76;70.11;100524.09;4964043;28;45270;-57
2021/10/05 03:33:16;;;;;;;;;5.00;3.00;;;;;15.78;69.86;100515.97;4963401;28;45262;-56
2021/10/05 03:35:42;;;;;;;;;6.25;1.75;;;;;15.80;69.79;100506.94;4963717;28;45258;-56
2021/10/05 03:38:08;;;;;;;;;3.25;2.00;;;;;15.81;69.68;100507.78;4963689;28;45261;-57
2021/10/05 03:40:34;;;;;;;;;1.00;0.75;;;;;15.83;69.90;100495.19;4964015;28;45409;-56
2021/10/05 03:42:59;;;;;;;;;2.50;1.00;;;;;15.83;69.88;100490.72;4948507;28;45311;-56
2021/10/05 03:45:25;;;;;;;;;1.00;1.00;;;;;15.83;69.82;100480.09;4944317;28;45579;-57
2021/10/05 03:47:50;;;;;;;;;1.00;1.00;;;;;15.85;69.88;100472.00;4944025;28;45254;-57
2021/10/05 03:50:16;;;;;;;;;1.00;1.00;;;;;15.79;69.80;100476.00;4944650;28;45373;-57
2021/10/05 03:52:41;;;;;;;;;2.00;1.00;;;;;15.78;69.96;100476.13;4943672;28;45539;-57
2021/10/05 03:55:09;;;;;;;;;5.00;1.00;;;;;15.78;70.19;100481.44;4944335;28;45308;-56
2021/10/05 03:57:35;;;;;;;;;1.25;1.00;;;;;15.79;69.80;100477.81;4944122;28;45206;-56
2021/10/05 04:00:00;;;;;;;;;2.25;1.00;;;;;15.80;70.06;100472.41;4943094;28;45456;-56
2021/10/05 04:02:26;;;;;;;;;4.50;3.00;;;;;15.82;70.10;100469.63;4944094;28;45199;-55
2021/10/05 04:04:51;;;;;;;;;2.00;1.00;;;;;15.79;70.16;100468.03;4943644;28;46081;-55
2021/10/05 04:07:17;;;;;;;;;2.75;1.00;;;;;15.78;70.22;100462.88;4943707;28;45367;-56
2021/10/05 04:09:43;;;;;;;;;2.25;0.75;;;;;15.78;70.44;100463.69;4944380;28;45297;-56
2021/10/05 04:12:09;;;;;;;;;2.00;2.00;;;;;15.79;70.38;100462.72;4944031;28;45643;-54
2021/10/05 04:14:35;;;;;;;;;4.00;1.00;;;;;15.80;70.03;100466.22;4951177;28;46073;-56
2021/10/05 04:17:01;;;;;;;;;1.00;1.00;;;;;15.79;70.39;100449.44;4949095;28;45339;-57
2021/10/05 04:19:26;;;;;;;;;3.00;3.00;;;;;15.83;70.18;100442.91;4943695;28;45365;-57
2021/10/05 04:21:52;;;;;;;;;4.50;2.25;;;;;15.83;70.31;100442.91;4943815;28;45464;-57
2021/10/05 04:24:17;;;;;;;;;4.25;3.00;;;;;15.83;70.27;100442.91;4943821;28;45878;-57
2021/10/05 04:26:43;;;;;;;;;3.25;3.25;;;;;15.83;70.30;100442.06;4943510;28;45392;-54
2021/10/05 04:29:09;;;;;;;;;7.00;6.00;;;;;15.83;70.15;100429.63;4943936;28;45291;-54
2021/10/05 04:31:36;;;;;;;;;6.00;3.50;;;;;15.83;70.33;100437.59;4943580;28;45373;-57
2021/10/05 04:34:02;;;;;;;;;6.25;5.00;;;;;15.80;70.11;100424.59;4943131;28;46356;-57
2021/10/05 04:36:27;;;;;;;;;4.75;3.75;;;;;15.82;70.20;100419.16;4959769;28;45334;-56
2021/10/05 04:38:53;;;;;;;;;5.75;4.25;;;;;15.80;70.11;100416.63;4963215;28;45408;-57
2021/10/05 04:41:19;;;;;;;;;5.25;4.00;;;;;15.80;70.30;100408.66;4961335;28;45559;-57
2021/10/05 04:43:44;;;;;;;;;5.00;4.50;;;;;15.81;69.99;100402.38;4943398;28;46201;-56
2021/10/05 04:46:10;;;;;;;;;5.25;3.00;;;;;15.81;70.01;100398.88;4943043;28;45420;-56
2021/10/05 04:48:35;;;;;;;;;4.50;2.00;;;;;15.82;70.15;100389.94;4943335;28;45377;-56
2021/10/05 04:51:01;;;;;;;;;3.25;3.00;;;;;15.83;70.28;100387.13;4958213;28;45630;-55
2021/10/05 04:53:26;;;;;;;;;2.25;2.25;;;;;15.83;69.97;100403.06;4943115;28;45388;-57
2021/10/05 04:55:52;;;;;;;;;2.00;2.00;;;;;15.80;70.33;100395.38;4943032;28;45583;-56
2021/10/05 04:58:17;;;;;;;;;8.50;4.00;;;;;15.80;70.09;100378.56;4958136;28;45317;-55
2021/10/05 05:00:42;;;;;;;;;4.00;4.00;;;;;15.81;70.28;100364.34;4943240;28;45465;-56
2021/10/05 05:03:08;;;;;;;;;26.25;22.00;;;;;15.82;70.29;100355.41;4941692;28;45967;-55
2021/10/05 05:05:34;;;;;;;;;5.25;1.00;;;;;15.81;70.16;100359.88;4942991;28;45354;-55
2021/10/05 05:08:00;;;;;;;;;5.25;5.25;;;;;15.79;70.27;100335.25;4946109;28;45237;-57
2021/10/05 05:10:27;;;;;;;;;6.25;3.50;;;;;15.75;70.32;100352.44;4962269;28;45203;-56
2021/10/05 05:12:53;;;;;;;;;3.00;3.00;;;;;15.74;70.45;100355.22;4943018;28;45993;-57
2021/10/05 05:15:19;;;;;;;;;2.00;1.50;;;;;15.72;70.27;100352.72;4942713;28;45318;-57
2021/10/05 05:17:45;;;;;;;;;0.25;0.25;;;;;15.74;70.34;100331.34;4942984;28;45430;-53
2021/10/05 05:20:11;;;;;;;;;4.50;1.25;;;;;15.74;70.02;100329.50;4942850;28;45428;-56
2021/10/05 05:22:37;;;;;;;;;2.00;2.00;;;;;15.73;70.44;100327.84;4942817;28;46295;-61
2021/10/05 05:25:06;;;;;;;;;3.00;1.75;;;;;15.73;70.44;100319.88;4942481;28;45718;-56
2021/10/05 05:27:32;;;;;;;;;3.75;2.00;;;;;15.72;70.57;100306.69;4941833;28;45239;-57
2021/10/05 05:29:58;;;;;;;;;4.50;2.75;;;;;15.71;70.63;100311.19;4942835;28;45430;-57
2021/10/05 05:32:24;;;;;;;;;4.00;1.75;;;;;15.71;70.48;100305.88;4942365;28;46211;-57
2021/10/05 05:34:50;;;;;;;;;2.75;1.25;;;;;15.72;70.82;100309.34;4945986;28;45356;-58
2021/10/05 05:37:16;;;;;;;;;2.75;2.75;;;;;15.71;70.36;100302.38;4962097;28;46487;-59
2021/10/05 05:39:43;;;;;;;;;3.50;2.00;;;;;15.72;70.38;100296.09;4962008;28;45401;-58
2021/10/05 05:42:10;;;;;;;;;3.75;2.25;;;;;15.73;70.51;100289.81;4953440;28;45437;-57
2021/10/05 05:44:37;;;;;;;;;2.50;2.00;;;;;15.71;70.59;100283.78;4942460;28;45471;-58
2021/10/05 05:47:03;;;;;;;;;2.50;1.50;;;;;15.71;70.49;100284.63;4942469;28;45263;-59
2021/10/05 05:49:29;;;;;;;;;4.50;2.25;;;;;15.73;70.77;100282.69;4942236;28;45234;-58
2021/10/05 05:51:54;;;;;;;;;1.25;1.00;;;;;15.73;70.73;100287.16;4942108;28;45424;-59
2021/10/05 05:54:20;;;;;;;;;4.00;2.75;;;;;15.75;70.63;100286.03;4954879;28;45348;-59
2021/10/05 05:56:46;;;;;;;;;3.00;2.00;;;;;15.76;70.46;100281.56;4962127;28;45554;-60
2021/10/05 05:59:12;;;;;;;;;3.75;1.50;;;;;15.78;70.43;100280.44;4961649;28;45398;-60
2021/10/05 06:01:37;;;;;;;;;4.00;2.75;;;;;15.79;70.51;100271.50;4956236;28;45381;-61
2021/10/05 06:04:05;;;;;;;;;5.00;1.00;;;;;15.81;70.50;100276.72;4948997;28;45442;-60
2021/10/05 06:06:31;;;;;;;;;1.75;1.00;;;;;15.81;70.52;100277.53;4958279;28;45207;-60
2021/10/05 06:08:58;;;;;;;;;2.75;2.00;;;;;15.83;70.29;100269.44;4951174;28;45489;-60
2021/10/05 06:11:24;;;;;;;;;2.50;2.00;;;;;15.87;70.35;100276.97;4942047;28;45502;-61
2021/10/05 06:13:50;;;;;;;;;2.00;1.00;;;;;15.89;70.12;100267.09;4941895;28;45374;-60
2021/10/05 06:16:16;;;;;;;;;3.75;2.50;;;;;15.89;70.15;100267.09;4953315;28;45474;-60
2021/10/05 06:18:42;;;;;;;;;4.75;1.75;;;;;15.91;70.20;100251.84;4954720;28;45375;-59
2021/10/05 06:21:08;;;;;;;;;2.75;1.00;;;;;15.93;70.08;100243.72;4956164;28;46404;-59
2021/10/05 06:23:34;;;;;;;;;4.75;1.00;;;;;15.94;70.18;100248.06;4953334;28;45273;-59
2021/10/05 06:25:59;;;;;;;;;3.50;3.00;;;;;15.97;70.13;100239.00;4954167;28;45545;-59
2021/10/05 06:28:25;;;;;;;;;6.00;5.00;;;;;16.00;70.13;100233.41;4956300;28;45219;-59
2021/10/05 06:30:50;;;;;;;;;3.00;3.00;;;;;16.00;70.05;100220.94;4955350;28;45227;-59
2021/10/05 06:33:17;;;;;;;;;3.50;3.50;;;;;16.02;70.10;100215.50;4956274;28;45420;-59
2021/10/05 06:35:43;;;;;;;;;5.00;4.25;;;;;16.04;70.08;100217.06;4956534;28;45466;-59
2021/10/05 06:38:09;;;;;;;;;4.00;3.50;;;;;16.06;70.03;100214.25;4967999;28;45489;-60
2021/10/05 06:40:35;;;;;;;;;2.50;2.50;;;;;16.06;70.20;100211.59;4953598;28;45611;-59
2021/10/05 06:43:01;;;;;;;;;4.00;3.00;;;;;16.05;70.45;100221.38;4957465;28;45528;-59
2021/10/05 06:45:27;;;;;;;;;5.00;3.50;;;;;16.05;70.50;100228.50;4952651;28;45496;-59
2021/10/05 06:47:53;;;;;;;;;5.75;4.00;;;;;16.04;70.76;100227.69;4953633;28;45293;-59
2021/10/05 06:50:19;;;;;;;;;6.25;4.00;;;;;16.03;70.94;100239.25;4953629;28;45337;-59
2021/10/05 06:52:45;;;;;;;;;6.25;3.75;;;;;16.02;71.04;100226.97;4956111;28;45181;-59
2021/10/05 06:55:12;;;;;;;;;2.25;2.00;;;;;16.00;71.30;100231.56;4955103;28;45448;-60
2021/10/05 06:57:37;;;;;;;;;4.75;4.75;;;;;15.98;71.35;100236.19;4956839;28;45272;-59
2021/10/05 07:00:05;;;;;;;;;6.50;4.50;;;;;15.98;71.73;100214.94;4954103;28;45334;-59
2021/10/05 07:02:31;;;;;;;;;5.25;4.75;;;;;15.98;72.24;100203.47;4963967;28;45436;-59
2021/10/05 07:04:56;;;;;;;;;4.00;4.00;;;;;15.97;72.03;100212.44;4964243;28;45408;-59
2021/10/05 07:07:22;;;;;;;;;6.00;6.00;;;;;15.95;72.42;100217.84;4964260;28;45325;-59
2021/10/05 07:09:47;;;;;;;;;7.75;6.25;;;;;15.94;72.67;100216.19;4946600;28;46390;-60
2021/10/05 07:12:12;;;;;;;;;5.50;5.50;;;;;15.93;72.60;100190.59;4944753;28;45267;-59
2021/10/05 07:14:38;;;;;;;;;8.50;6.50;;;;;15.91;72.83;100192.56;4945009;28;45516;-59
2021/10/05 07:17:04;;;;;;;;;6.00;6.00;;;;;15.90;72.88;100186.41;4944806;28;45351;-59
2021/10/05 07:19:29;;;;;;;;;8.25;7.00;;;;;15.87;73.21;100184.00;4944341;28;45978;-59
2021/10/05 07:21:55;;;;;;;;;8.75;5.25;;;;;15.89;73.38;100178.59;4944510;28;45352;-60
2021/10/05 07:24:20;;;;;;;;;5.00;5.00;;;;;15.86;73.69;100179.69;4944980;28;45169;-59
2021/10/05 07:26:46;;;;;;;;;5.25;5.25;;;;;15.85;73.71;100178.00;4943726;28;45243;-60
2021/10/05 07:29:13;;;;;;;;;6.25;4.50;;;;;15.82;73.79;100178.28;4944751;28;45362;-60
2021/10/05 07:31:38;;;;;;;;;8.25;5.75;;;;;15.80;73.93;100166.13;4944264;28;45492;-59
2021/10/05 07:34:04;;;;;;;;;6.00;6.00;;;;;15.80;74.49;100151.03;4944336;28;45472;-59
2021/10/05 07:36:30;;;;;;;;;9.00;6.00;;;;;15.80;74.17;100147.53;4960614;28;45661;-60
2021/10/05 07:38:56;;;;;;;;;5.50;5.50;;;;;15.78;74.19;100141.53;4963630;28;45326;-60
2021/10/05 07:41:21;;;;;;;;;6.25;5.00;;;;;15.76;74.50;100136.34;4961676;28;45334;-60
2021/10/05 07:43:47;;;;;;;;;8.25;4.50;;;;;15.78;74.46;100137.03;4944683;28;45433;-60
2021/10/05 07:46:16;;;;;;;;;7.50;3.00;;;;;15.80;74.40;100131.59;4944406;28;45473;-60
2021/10/05 07:48:42;;;;;;;;;7.00;4.00;;;;;15.82;74.53;100129.66;4943896;28;46284;-60
2021/10/05 07:51:07;;;;;;;;;4.00;4.00;;;;;15.82;74.61;100127.84;4944099;28;45450;-59
2021/10/05 07:53:32;;;;;;;;;5.25;3.00;;;;;15.79;74.72;100121.94;4944411;28;45226;-60
2021/10/05 07:55:58;;;;;;;;;6.50;2.00;;;;;15.79;74.59;100108.66;4944313;28;45528;-60
2021/10/05 07:58:23;;;;;;;;;6.75;3.00;;;;;15.78;74.90;100099.03;4944283;28;45956;-60
2021/10/05 08:00:49;;;;;;;;;2.00;1.75;;;;;15.76;74.77;100093.03;4944076;28;45212;-59
2021/10/05 08:03:15;;;;;;;;;4.00;2.00;;;;;15.76;74.93;100096.53;4944008;28;45265;-60
2021/10/05 08:05:41;;;;;;;;;4.00;2.00;;;;;15.76;74.89;100096.53;4944122;28;45315;-59
2021/10/05 08:08:07;;;;;;;;;1.00;1.00;;;;;15.78;74.87;100107.84;4947674;28;46092;-59
2021/10/05 08:10:34;;;;;;;;;4.50;2.00;;;;;15.79;74.96;100085.59;4961096;28;45474;-59
2021/10/05 08:13:01;;;;;;;;;2.00;2.00;;;;;15.81;74.85;100085.50;4944066;28;45327;-60
2021/10/05 08:15:27;;;;;;;;;3.50;2.00;;;;;15.81;74.94;100107.56;4944002;28;45247;-60
2021/10/05 08:17:53;;;;;;;;;2.00;2.00;;;;;15.81;75.18;100107.56;4943732;28;45270;-59
2021/10/05 08:20:19;;;;;;;;;1.50;1.50;;;;;15.79;75.13;100103.34;4943658;28;45291;-60
2021/10/05 08:22:44;;;;;;;;;1.00;1.00;;;;;15.78;75.61;100104.34;4944004;28;45389;-60
2021/10/05 08:25:10;;;;;;;;;1.75;1.00;;;;;15.77;75.63;100108.81;4943885;28;45480;-60
2021/10/05 08:27:36;;;;;;;;;2.00;2.00;;;;;15.78;75.60;100096.38;4943757;28;45422;-60
2021/10/05 08:30:01;;;;;;;;;4.25;1.00;;;;;15.80;75.55;100091.75;4943569;28;45321;-60
2021/10/05 08:32:27;;;;;;;;;4.00;1.00;;;;;15.80;75.44;100079.34;4943729;28;45340;-60
2021/10/05 08:34:52;;;;;;;;;0.00;0.00;;;;;15.83;75.58;100070.25;4947128;28;45302;-59
2021/10/05 08:37:18;;;;;;;;;1.00;1.00;;;;;15.86;75.50;100069.94;4955073;28;46228;-60
2021/10/05 08:39:43;;;;;;;;;0.00;0.00;;;;;15.87;75.64;100076.94;4943628;28;45312;-60
2021/10/05 08:42:09;;;;;;;;;1.50;0.50;;;;;15.88;75.43;100073.31;4952021;28;45433;-59
2021/10/05 08:44:34;;;;;;;;;2.00;2.00;;;;;15.91;75.59;100081.00;4948881;28;45244;-60
2021/10/05 08:47:00;;;;;;;;;1.00;1.00;;;;;15.94;75.75;100077.22;4943524;28;46182;-59
2021/10/05 08:49:26;;;;;;;;;3.00;1.00;;;;;15.93;75.53;100076.38;4943234;28;45726;-59
2021/10/05 08:51:55;;;;;;;;;3.50;1.00;;;;;15.93;75.48;100072.88;4943576;28;45228;-59
2021/10/05 08:54:21;;;;;;;;;0.75;0.75;;;;;15.95;75.71;100068.25;4943295;28;45341;-60
2021/10/05 08:56:47;;;;;;;;;2.00;1.75;;;;;15.96;75.96;100054.88;4943210;28;46024;-59
2021/10/05 08:59:14;;;;;;;;;3.00;0.00;;;;;15.98;75.68;100065.34;4943201;28;45390;-59
2021/10/05 09:01:40;;;;;;;;;0.00;0.00;;;;;15.98;75.69;100092.75;4955693;28;45559;-60
2021/10/05 09:04:06;;;;;;;;;2.75;1.00;;;;;15.95;75.77;100103.63;4948144;28;45249;-60
2021/10/05 09:06:35;;;;;;;;;2.00;1.00;;;;;15.90;76.01;100127.97;4954499;28;46197;-60
2021/10/05 09:09:02;;;;;;;;;0.00;0.00;;;;;15.83;76.33;100131.34;4958641;28;45280;-59
2021/10/05 09:11:37;;;;;;;;;0.25;0.00;;;;;15.83;76.26;100133.97;4951207;28;45361;-59
2021/10/05 09:14:03;;;;;;;;;0.25;0.00;;;;;15.85;75.39;100137.34;4943250;28;45322;-59
2021/10/05 09:16:31;;;;;;;;;0.00;0.00;;;;;15.82;75.16;100149.09;4954145;28;46012;-59
2021/10/05 09:19:07;;;;;;;;;1.50;0.25;;;;;15.82;74.71;100143.78;4945778;28;45215;-60
2021/10/05 09:21:44;;;;;;;;;1.25;1.00;;;;;15.81;74.07;100171.31;4954755;28;45259;-59
2021/10/05 09:24:12;;;;;;;;;1.25;1.00;;;;;15.74;74.53;100185.28;4943139;28;45650;-60
2021/10/05 09:26:52;;;;;;;;;4.50;1.00;;;;;15.71;74.11;100174.91;4954867;28;45309;-60
2021/10/05 09:29:19;;;;;;;;;0.00;0.00;;;;;15.69;73.97;100183.03;4953643;28;45329;-59
2021/10/05 09:31:53;;;;;;;;;5.50;1.00;;;;;15.68;74.22;100189.31;4956297;28;45435;-60
2021/10/05 09:34:21;;;;;;;;;0.25;0.00;;;;;15.70;74.30;100184.69;4952073;28;45304;-59
2021/10/05 09:36:46;;;;;;;;;1.00;0.00;;;;;15.73;73.94;100188.91;4960989;28;46349;-60
2021/10/05 09:39:12;;;;;;;;;0.00;0.00;;;;;15.82;73.84;100196.88;4952275;28;45386;-60
2021/10/05 09:41:38;;;;;;;;;2.00;0.25;;;;;15.93;73.71;100182.63;4951661;28;45683;-59
2021/10/05 09:44:07;;;;;;;;;1.25;0.00;;;;;15.98;72.75;100191.03;4953595;28;45327;-60
2021/10/05 09:46:33;;;;;;;;;0.00;0.00;;;;;15.98;73.48;100198.16;4953489;28;45453;-59
2021/10/05 09:49:01;;;;;;;;;0.75;0.00;;;;;15.97;72.59;100207.94;4950060;28;45840;-59
2021/10/05 09:51:27;;;;;;;;;0.00;0.00;;;;;15.96;72.86;100222.22;4948917;28;45312;-60
2021/10/05 09:53:54;;;;;;;;;1.00;0.00;;;;;15.95;72.77;100217.84;4951568;28;45413;-59
2021/10/05 09:56:22;;;;;;;;;2.25;0.00;;;;;15.93;72.56;100232.25;4951448;28;46045;-60
2021/10/05 09:58:50;;;;;;;;;0.00;0.00;;;;;15.93;72.90;100229.59;4949468;28;45259;-60
2021/10/05 10:01:17;;;;;;;;;0.00;0.00;;;;;15.93;72.28;100232.25;4949421;28;45398;-60
2021/10/05 10:03:45;;;;;;;;;0.00;0.00;;;;;15.93;72.50;100233.09;4951365;28;45483;-60
2021/10/05 10:06:12;;;;;;;;;1.00;0.00;;;;;15.96;72.66;100229.31;4950888;28;46100;-60
2021/10/05 10:08:39;;;;;;;;;1.00;1.00;;;;;15.99;72.55;100237.03;4952839;28;45192;-60
2021/10/05 10:11:05;;;;;;;;;1.00;0.00;;;;;16.01;72.33;100243.88;4954430;28;45428;-59
2021/10/05 10:13:31;;;;;;;;;0.25;0.00;;;;;16.05;72.06;100249.78;4950096;28;45494;-59
2021/10/05 10:15:58;;;;;;;;;1.00;0.00;;;;;16.09;71.94;100246.69;4954366;28;45505;-59
2021/10/05 10:18:24;;;;;;;;;0.00;0.00;;;;;16.12;72.10;100258.88;4953992;28;45540;-60
2021/10/05 10:21:10;;;;;;;;;2.00;0.00;;;;;16.15;72.42;100267.41;4947034;28;45448;-58
2021/10/05 10:23:39;;;;;;;;;0.75;0.00;;;;;16.18;71.78;100272.41;4965792;28;45485;-59
2021/10/05 10:26:19;;;;;;;;;0.00;0.00;;;;;16.22;72.04;100269.50;4952859;28;46392;-59
2021/10/05 10:28:46;;;;;;;;;0.00;0.00;;;;;16.28;71.84;100276.94;4965790;28;45616;-57
2021/10/05 10:31:26;;;;;;;;;1.75;0.75;;;;;16.33;71.61;100277.34;4951710;28;45228;-57
2021/10/05 10:33:52;;;;;;;;;1.00;1.00;;;;;16.38;71.26;100280.44;4954233;28;45492;-57
2021/10/05 10:36:41;;;;;;;;;3.25;0.00;;;;;16.41;70.93;100291.59;4952633;28;45872;-55
2021/10/05 10:39:13;;;;;;;;;2.00;2.00;;;;;16.48;70.93;100292.72;4949905;28;45392;-59
2021/10/05 10:41:42;;;;;;;;;1.00;1.00;;;;;16.56;70.72;100286.72;4952540;28;45310;-59
2021/10/05 10:44:11;;;;;;;;;0.75;0.75;;;;;16.63;70.43;100292.31;4952496;28;45413;-60
2021/10/05 10:46:39;;;;;;;;;0.00;0.00;;;;;16.72;70.37;100299.47;4952087;28;45552;-59
2021/10/05 10:49:25;;;;;;;;;0.75;0.00;;;;;16.81;69.63;100314.59;4949663;28;45387;-57
2021/10/05 10:51:51;;;;;;;;;1.00;0.00;;;;;16.88;69.63;100320.19;4951752;28;45325;-59
2021/10/05 10:54:18;;;;;;;;;0.25;0.25;;;;;16.94;68.92;100316.97;4950960;28;45321;-60
2021/10/05 10:56:56;;;;;;;;;1.00;0.00;;;;;16.98;68.47;100315.69;4941717;28;46028;-58
2021/10/05 10:59:26;;;;;;;;;1.00;0.25;;;;;17.02;68.35;100320.59;4940654;28;45388;-58
2021/10/05 11:01:53;;;;;;;;;1.75;0.50;;;;;17.03;68.18;100316.94;4942836;28;45337;-59
2021/10/05 11:04:20;;;;;;;;;1.00;0.00;;;;;17.13;68.15;100324.06;4944489;28;45404;-58
2021/10/05 11:06:53;;;;;;;;;2.25;1.00;;;;;17.16;67.89;100327.28;4944612;28;46288;-58
2021/10/05 11:09:20;;;;;;;;;0.00;0.00;;;;;17.11;67.15;100321.56;4957251;28;45448;-59
2021/10/05 11:11:57;;;;;;;;;0.00;0.00;;;;;17.03;66.52;100332.91;4952916;28;45342;-58
2021/10/05 11:14:31;;;;;;;;;0.00;0.00;;;;;17.03;66.35;100332.06;4944466;28;45330;-58
2021/10/05 11:17:03;;;;;;;;;0.50;0.00;;;;;17.06;66.46;100328.28;4944385;28;45494;-59
2021/10/05 11:19:31;;;;;;;;;0.00;0.00;;;;;17.14;65.97;100342.59;4943975;28;45223;-59
2021/10/05 11:21:58;;;;;;;;;0.00;0.00;;;;;17.25;65.32;100342.41;4958975;28;45631;-59